sensor_id;sensor_type;location;lat;lon;timestamp;pressure;altitude;pressure_sealevel;temperature;humidity
8051;BME280;4068;42.158;24.732;2023-03-26T00:00:08;98925.47;;;10.74;100.00
8051;BME280;4068;42.158;24.732;2023-03-26T00:02:34;98920.44;;;10.51;100.00
8051;BME280;4068;42.158;24.732;2023-03-26T00:04:59;98944.88;;;10.55;100.00
8051;BME280;4068;42.158;24.732;2023-03-26T00:07:25;98938.88;;;10.43;100.00
8051;BME280;4068;42.158;24.732;2023-03-26T00:09:52;98939.94;;;10.31;100.00
8051;BME280;4068;42.158;24.732;2023-03-26T00:12:17;98943.00;;;10.26;100.00
8051;BME280;4068;42.158;24.732;2023-03-26T00:14:43;98915.19;;;10.01;100.00
8051;BME280;4068;42.158;24.732;2023-03-26T00:17:09;98931.78;;;10.13;100.00
8051;BME280;4068;42.158;24.732;2023-03-26T00:19:34;98918.28;;;10.06;100.00
8051;BME280;4068;42.158;24.732;2023-03-26T00:22:01;98933.34;;;10.15;100.00
8051;BME280;4068;42.158;24.732;2023-03-26T00:24:27;98933.03;;;10.09;100.00
8051;BME280;4068;42.158;24.732;2023-03-26T00:26:54;98929.66;;;9.97;100.00
8051;BME280;4068;42.158;24.732;2023-03-26T00:29:20;98920.03;;;9.96;100.00
8051;BME280;4068;42.158;24.732;2023-03-26T00:31:47;98918.28;;;10.06;100.00
8051;BME280;4068;42.158;24.732;2023-03-26T00:34:13;98910.03;;;10.09;100.00
8051;BME280;4068;42.158;24.732;2023-03-26T00:36:39;98901.53;;;10.15;100.00
8051;BME280;4068;42.158;24.732;2023-03-26T00:39:06;98899.19;;;10.22;100.00
8051;BME280;4068;42.158;24.732;2023-03-26T00:41:32;98920.16;;;10.35;100.00
8051;BME280;4068;42.158;24.732;2023-03-26T00:44:01;98897.97;;;10.36;100.00
8051;BME280;4068;42.158;24.732;2023-03-26T00:46:28;98873.53;;;10.32;100.00
8051;BME280;4068;42.158;24.732;2023-03-26T00:48:55;98901.50;;;10.56;100.00
8051;BME280;4068;42.158;24.732;2023-03-26T00:51:24;98905.94;;;10.65;100.00
8051;BME280;4068;42.158;24.732;2023-03-26T00:53:50;98910.00;;;10.79;100.00
8051;BME280;4068;42.158;24.732;2023-03-26T00:56:16;98917.66;;;10.92;100.00
8051;BME280;4068;42.158;24.732;2023-03-26T00:58:42;98918.91;;;11.08;100.00
8051;BME280;4068;42.158;24.732;2023-03-26T01:01:14;98920.25;;;11.21;100.00
8051;BME280;4068;42.158;24.732;2023-03-26T01:03:41;98899.16;;;11.30;100.00
8051;BME280;4068;42.158;24.732;2023-03-26T01:06:10;98912.13;;;11.43;100.00
8051;BME280;4068;42.158;24.732;2023-03-26T01:08:47;98901.09;;;11.47;100.00
8051;BME280;4068;42.158;24.732;2023-03-26T01:11:26;98927.78;;;11.83;100.00
8051;BME280;4068;42.158;24.732;2023-03-26T01:14:01;98948.69;;;12.06;100.00
8051;BME280;4068;42.158;24.732;2023-03-26T01:16:34;98958.50;;;12.23;100.00
8051;BME280;4068;42.158;24.732;2023-03-26T01:19:03;98939.16;;;12.31;100.00
8051;BME280;4068;42.158;24.732;2023-03-26T01:21:30;98950.13;;;12.46;100.00
8051;BME280;4068;42.158;24.732;2023-03-26T01:24:03;98930.66;;;12.28;100.00
8051;BME280;4068;42.158;24.732;2023-03-26T01:32:04;98969.72;;;12.45;100.00
8051;BME280;4068;42.158;24.732;2023-03-26T01:35:10;98967.66;;;12.39;100.00
8051;BME280;4068;42.158;24.732;2023-03-26T01:37:46;98972.28;;;12.37;100.00
8051;BME280;4068;42.158;24.732;2023-03-26T01:45:25;98988.19;;;12.47;100.00
8051;BME280;4068;42.158;24.732;2023-03-26T01:47:53;98988.13;;;12.56;100.00
8051;BME280;4068;42.158;24.732;2023-03-26T01:50:19;98987.81;;;12.59;100.00
8051;BME280;4068;42.158;24.732;2023-03-26T01:52:44;98983.56;;;12.67;100.00
8051;BME280;4068;42.158;24.732;2023-03-26T01:55:10;98972.47;;;12.53;100.00
8051;BME280;4068;42.158;24.732;2023-03-26T02:00:32;98987.50;;;12.63;100.00
8051;BME280;4068;42.158;24.732;2023-03-26T02:03:26;98984.47;;;12.57;100.00
8051;BME280;4068;42.158;24.732;2023-03-26T02:06:09;98985.16;;;12.59;100.00
8051;BME280;4068;42.158;24.732;2023-03-26T02:08:45;98994.91;;;12.69;100.00
8051;BME280;4068;42.158;24.732;2023-03-26T02:11:14;98988.81;;;12.76;100.00
8051;BME280;4068;42.158;24.732;2023-03-26T02:13:42;98993.63;;;12.91;100.00
8051;BME280;4068;42.158;24.732;2023-03-26T02:16:11;99007.09;;;13.07;100.00
8051;BME280;4068;42.158;24.732;2023-03-26T02:18:44;98987.69;;;13.15;100.00
8051;BME280;4068;42.158;24.732;2023-03-26T02:21:15;99012.75;;;13.30;100.00
8051;BME280;4068;42.158;24.732;2023-03-26T02:23:45;98993.16;;;13.32;100.00
8051;BME280;4068;42.158;24.732;2023-03-26T02:26:13;98985.25;;;13.22;100.00
8051;BME280;4068;42.158;24.732;2023-03-26T02:28:39;98988.66;;;13.32;100.00
8051;BME280;4068;42.158;24.732;2023-03-26T02:31:05;99006.25;;;13.43;100.00
8051;BME280;4068;42.158;24.732;2023-03-26T02:33:34;99006.25;;;13.43;100.00
8051;BME280;4068;42.158;24.732;2023-03-26T02:35:59;99008.75;;;13.44;100.00
8051;BME280;4068;42.158;24.732;2023-03-26T02:38:30;99013.28;;;13.52;100.00
8051;BME280;4068;42.158;24.732;2023-03-26T02:41:00;99009.31;;;13.56;100.00
8051;BME280;4068;42.158;24.732;2023-03-26T02:43:26;98987.94;;;13.48;100.00
8051;BME280;4068;42.158;24.732;2023-03-26T02:45:51;99010.03;;;13.58;100.00
8051;BME280;4068;42.158;24.732;2023-03-26T02:48:17;99016.72;;;13.62;100.00
8051;BME280;4068;42.158;24.732;2023-03-26T02:50:43;99015.03;;;13.61;100.00
8051;BME280;4068;42.158;24.732;2023-03-26T02:53:10;99007.69;;;13.55;100.00
8051;BME280;4068;42.158;24.732;2023-03-26T02:55:36;99023.44;;;13.49;100.00
8051;BME280;4068;42.158;24.732;2023-03-26T02:58:02;99002.22;;;13.39;100.00
8051;BME280;4068;42.158;24.732;2023-03-26T03:00:27;99020.84;;;13.39;99.72
8051;BME280;4068;42.158;24.732;2023-03-26T03:02:53;99015.97;;;13.34;99.31
8051;BME280;4068;42.158;24.732;2023-03-26T03:05:22;99021.75;;;13.29;98.19
8051;BME280;4068;42.158;24.732;2023-03-26T03:07:50;99036.56;;;13.32;97.36
8051;BME280;4068;42.158;24.732;2023-03-26T03:10:16;99026.78;;;13.33;97.32
8051;BME280;4068;42.158;24.732;2023-03-26T03:12:46;99035.50;;;13.25;96.96
8051;BME280;4068;42.158;24.732;2023-03-26T03:15:12;99037.34;;;13.24;97.29
8051;BME280;4068;42.158;24.732;2023-03-26T03:17:38;99032.03;;;13.24;96.17
8051;BME280;4068;42.158;24.732;2023-03-26T03:20:05;99036.97;;;13.19;95.60
8051;BME280;4068;42.158;24.732;2023-03-26T03:22:33;99040.09;;;13.15;95.53
8051;BME280;4068;42.158;24.732;2023-03-26T03:24:58;99040.56;;;13.10;94.56
8051;BME280;4068;42.158;24.732;2023-03-26T03:27:24;99022.06;;;12.90;94.08
8051;BME280;4068;42.158;24.732;2023-03-26T03:29:51;99053.94;;;13.00;93.72
8051;BME280;4068;42.158;24.732;2023-03-26T03:32:21;99051.34;;;12.90;94.05
8051;BME280;4068;42.158;24.732;2023-03-26T03:34:47;99047.44;;;12.85;93.86
8051;BME280;4068;42.158;24.732;2023-03-26T03:37:15;99018.25;;;12.75;93.66
8051;BME280;4068;42.158;24.732;2023-03-26T03:39:41;99053.91;;;12.82;94.03
8051;BME280;4068;42.158;24.732;2023-03-26T03:42:06;99041.88;;;12.78;93.72
8051;BME280;4068;42.158;24.732;2023-03-26T03:44:31;99053.38;;;12.78;92.70
8051;BME280;4068;42.158;24.732;2023-03-26T03:46:57;99044.75;;;12.67;92.42
8051;BME280;4068;42.158;24.732;2023-03-26T03:49:22;99056.78;;;12.71;92.52
8051;BME280;4068;42.158;24.732;2023-03-26T03:51:48;99071.44;;;12.75;91.96
8051;BME280;4068;42.158;24.732;2023-03-26T03:54:13;99069.91;;;12.72;92.48
8051;BME280;4068;42.158;24.732;2023-03-26T03:56:39;99070.53;;;12.66;92.86
8051;BME280;4068;42.158;24.732;2023-03-26T03:59:04;99080.09;;;12.59;93.18
8051;BME280;4068;42.158;24.732;2023-03-26T04:01:30;99075.09;;;12.46;93.94
8051;BME280;4068;42.158;24.732;2023-03-26T04:03:57;99080.16;;;12.39;94.53
8051;BME280;4068;42.158;24.732;2023-03-26T04:06:23;99056.47;;;12.18;94.85
8051;BME280;4068;42.158;24.732;2023-03-26T04:08:50;99075.88;;;12.29;95.31
8051;BME280;4068;42.158;24.732;2023-03-26T04:11:16;99073.22;;;12.29;94.64
8051;BME280;4068;42.158;24.732;2023-03-26T04:13:42;99073.72;;;12.14;94.70
8051;BME280;4068;42.158;24.732;2023-03-26T04:16:09;99084.72;;;12.19;94.84
8051;BME280;4068;42.158;24.732;2023-03-26T04:18:35;99090.78;;;12.12;94.91
8051;BME280;4068;42.158;24.732;2023-03-26T04:21:02;99083.66;;;12.02;95.37
8051;BME280;4068;42.158;24.732;2023-03-26T04:23:30;99093.59;;;12.10;95.54
8051;BME280;4068;42.158;24.732;2023-03-26T04:25:57;99105.47;;;12.06;95.54
8051;BME280;4068;42.158;24.732;2023-03-26T04:28:29;99105.88;;;12.01;95.99
8051;BME280;4068;42.158;24.732;2023-03-26T04:30:56;99090.78;;;11.92;96.21
8051;BME280;4068;42.158;24.732;2023-03-26T04:33:29;99110.66;;;11.98;96.36
8051;BME280;4068;42.158;24.732;2023-03-26T04:35:56;99096.81;;;11.84;96.59
8051;BME280;4068;42.158;24.732;2023-03-26T04:38:27;99092.06;;;11.78;96.80
8051;BME280;4068;42.158;24.732;2023-03-26T04:40:53;99118.78;;;11.96;96.75
8051;BME280;4068;42.158;24.732;2023-03-26T04:43:18;99123.66;;;12.01;96.64
8051;BME280;4068;42.158;24.732;2023-03-26T04:45:45;99132.47;;;12.01;96.43
8051;BME280;4068;42.158;24.732;2023-03-26T04:48:12;99128.81;;;12.02;96.15
8051;BME280;4068;42.158;24.732;2023-03-26T04:50:43;99134.41;;;12.09;96.02
8051;BME280;4068;42.158;24.732;2023-03-26T04:53:15;99142.81;;;12.14;95.78
8051;BME280;4068;42.158;24.732;2023-03-26T04:55:45;99144.03;;;12.20;95.37
8051;BME280;4068;42.158;24.732;2023-03-26T04:58:13;99134.41;;;12.19;95.33
8051;BME280;4068;42.158;24.732;2023-03-26T05:00:40;99143.63;;;12.24;95.54
8051;BME280;4068;42.158;24.732;2023-03-26T05:03:08;99148.50;;;12.29;95.32
8051;BME280;4068;42.158;24.732;2023-03-26T05:05:34;99124.31;;;12.13;95.35
8051;BME280;4068;42.158;24.732;2023-03-26T05:08:00;99164.59;;;12.28;95.74
8051;BME280;4068;42.158;24.732;2023-03-26T05:10:25;99171.44;;;12.30;95.41
8051;BME280;4068;42.158;24.732;2023-03-26T05:12:51;99159.44;;;12.26;95.69
8051;BME280;4068;42.158;24.732;2023-03-26T05:15:16;99145.88;;;12.19;95.69
8051;BME280;4068;42.158;24.732;2023-03-26T05:17:42;99159.81;;;12.31;95.99
8051;BME280;4068;42.158;24.732;2023-03-26T05:20:16;99172.13;;;12.42;95.80
8051;BME280;4068;42.158;24.732;2023-03-26T05:22:43;99168.03;;;12.48;95.76
8051;BME280;4068;42.158;24.732;2023-03-26T05:25:09;99175.19;;;12.47;95.65
8051;BME280;4068;42.158;24.732;2023-03-26T05:27:34;99170.84;;;12.46;95.93
8051;BME280;4068;42.158;24.732;2023-03-26T05:30:01;99173.91;;;12.51;96.42
8051;BME280;4068;42.158;24.732;2023-03-26T05:32:26;99175.84;;;12.59;95.94
8051;BME280;4068;42.158;24.732;2023-03-26T05:34:52;99175.84;;;12.59;96.56
8051;BME280;4068;42.158;24.732;2023-03-26T05:37:17;99178.19;;;12.72;96.13
8051;BME280;4068;42.158;24.732;2023-03-26T05:39:44;99187.41;;;12.77;96.05
8051;BME280;4068;42.158;24.732;2023-03-26T05:42:10;99161.53;;;12.70;95.79
8051;BME280;4068;42.158;24.732;2023-03-26T05:44:35;99161.91;;;12.75;95.51
8051;BME280;4068;42.158;24.732;2023-03-26T05:47:01;99189.41;;;12.93;95.31
8051;BME280;4068;42.158;24.732;2023-03-26T05:49:26;99187.00;;;13.00;94.91
8051;BME280;4068;42.158;24.732;2023-03-26T05:51:52;99183.91;;;13.05;95.24
8051;BME280;4068;42.158;24.732;2023-03-26T05:54:17;99189.47;;;13.11;95.15
8051;BME280;4068;42.158;24.732;2023-03-26T05:56:42;99199.97;;;13.13;94.93
8051;BME280;4068;42.158;24.732;2023-03-26T05:59:08;99178.97;;;13.10;94.79
8051;BME280;4068;42.158;24.732;2023-03-26T06:01:33;99210.16;;;13.18;94.95
8051;BME280;4068;42.158;24.732;2023-03-26T06:03:59;99214.06;;;13.23;94.51
8051;BME280;4068;42.158;24.732;2023-03-26T06:06:24;99225.66;;;13.32;93.24
8051;BME280;4068;42.158;24.732;2023-03-26T06:08:51;99211.22;;;13.35;92.72
8051;BME280;4068;42.158;24.732;2023-03-26T06:11:18;99236.06;;;13.53;92.70
8051;BME280;4068;42.158;24.732;2023-03-26T06:13:44;99231.81;;;13.60;91.36
8051;BME280;4068;42.158;24.732;2023-03-26T06:16:11;99220.91;;;13.54;90.18
8051;BME280;4068;42.158;24.732;2023-03-26T06:18:38;99224.44;;;13.72;89.07
8051;BME280;4068;42.158;24.732;2023-03-26T06:21:04;99256.59;;;13.89;89.17
8051;BME280;4068;42.158;24.732;2023-03-26T06:23:30;99253.84;;;13.98;89.63
8051;BME280;4068;42.158;24.732;2023-03-26T06:25:56;99242.94;;;14.10;89.16
8051;BME280;4068;42.158;24.732;2023-03-26T06:28:21;99248.50;;;14.17;85.78
8051;BME280;4068;42.158;24.732;2023-03-26T06:30:47;99249.03;;;14.20;84.93
8051;BME280;4068;42.158;24.732;2023-03-26T06:33:13;99233.69;;;14.22;85.78
8051;BME280;4068;42.158;24.732;2023-03-26T06:35:38;99242.06;;;14.45;86.76
8051;BME280;4068;42.158;24.732;2023-03-26T06:38:04;99239.41;;;14.45;85.40
8051;BME280;4068;42.158;24.732;2023-03-26T06:40:32;99240.91;;;14.48;84.43
8051;BME280;4068;42.158;24.732;2023-03-26T06:42:57;99228.88;;;14.44;83.45
8051;BME280;4068;42.158;24.732;2023-03-26T06:45:25;99258.81;;;14.56;82.35
8051;BME280;4068;42.158;24.732;2023-03-26T06:47:50;99256.50;;;14.61;80.68
8051;BME280;4068;42.158;24.732;2023-03-26T06:50:16;99254.28;;;14.56;80.40
8051;BME280;4068;42.158;24.732;2023-03-26T06:52:41;99247.53;;;14.62;80.82
8051;BME280;4068;42.158;24.732;2023-03-26T06:55:07;99246.94;;;14.76;80.22
8051;BME280;4068;42.158;24.732;2023-03-26T06:57:34;99247.97;;;14.83;80.17
8051;BME280;4068;42.158;24.732;2023-03-26T07:00:00;99244.53;;;14.91;80.66
8051;BME280;4068;42.158;24.732;2023-03-26T07:02:25;99243.94;;;15.06;81.27
8051;BME280;4068;42.158;24.732;2023-03-26T07:04:51;99250.69;;;15.18;81.02
8051;BME280;4068;42.158;24.732;2023-03-26T07:07:17;99253.84;;;15.22;77.76
8051;BME280;4068;42.158;24.732;2023-03-26T07:09:46;99258.69;;;15.18;78.11
8051;BME280;4068;42.158;24.732;2023-03-26T07:12:12;99253.84;;;15.22;76.37
8051;BME280;4068;42.158;24.732;2023-03-26T07:14:38;99260.06;;;15.30;74.34
8051;BME280;4068;42.158;24.732;2023-03-26T07:17:03;99239.69;;;15.21;73.27
8051;BME280;4068;42.158;24.732;2023-03-26T07:19:28;99222.47;;;15.15;72.86
8051;BME280;4068;42.158;24.732;2023-03-26T07:21:54;99214.94;;;15.19;71.23
8051;BME280;4068;42.158;24.732;2023-03-26T07:24:20;99250.75;;;15.43;70.76
8051;BME280;4068;42.158;24.732;2023-03-26T07:27:09;99261.13;;;15.46;70.41
8051;BME280;4068;42.158;24.732;2023-03-26T07:29:58;99260.63;;;15.50;69.36
8051;BME280;4068;42.158;24.732;2023-03-26T07:35:12;99246.34;;;15.68;68.54
8051;BME280;4068;42.158;24.732;2023-03-26T07:42:59;99235.69;;;15.93;63.38
8051;BME280;4068;42.158;24.732;2023-03-26T07:45:32;99240.22;;;16.09;62.97
8051;BME280;4068;42.158;24.732;2023-03-26T07:48:02;99234.19;;;16.23;61.43
8051;BME280;4068;42.158;24.732;2023-03-26T07:50:28;99243.25;;;16.22;60.39
8051;BME280;4068;42.158;24.732;2023-03-26T07:52:54;99242.06;;;16.33;60.21
8051;BME280;4068;42.158;24.732;2023-03-26T07:55:20;99237.22;;;16.36;60.44
8051;BME280;4068;42.158;24.732;2023-03-26T07:57:57;99239.38;;;16.33;55.09
8051;BME280;4068;42.158;24.732;2023-03-26T08:00:36;99230.34;;;16.26;55.94
8051;BME280;4068;42.158;24.732;2023-03-26T08:06:04;99221.16;;;16.36;55.91
8051;BME280;4068;42.158;24.732;2023-03-26T08:08:54;99208.78;;;16.27;55.49
8051;BME280;4068;42.158;24.732;2023-03-26T08:11:33;99211.47;;;16.35;55.80
8051;BME280;4068;42.158;24.732;2023-03-26T08:16:55;99177.34;;;16.29;55.96
8051;BME280;4068;42.158;24.732;2023-03-26T08:22:01;99187.38;;;16.35;55.43
8051;BME280;4068;42.158;24.732;2023-03-26T08:32:33;99179.69;;;16.41;56.77
8051;BME280;4068;42.158;24.732;2023-03-26T08:34:58;99194.69;;;16.66;54.69
8051;BME280;4068;42.158;24.732;2023-03-26T08:37:25;99206.19;;;16.75;54.13
8051;BME280;4068;42.158;24.732;2023-03-26T08:39:51;99200.31;;;16.80;54.78
8051;BME280;4068;42.158;24.732;2023-03-26T08:54:13;99189.78;;;16.95;52.05
8051;BME280;4068;42.158;24.732;2023-03-26T08:56:50;99191.56;;;17.02;52.34
8051;BME280;4068;42.158;24.732;2023-03-26T09:08:09;99178.00;;;17.35;46.77
8051;BME280;4068;42.158;24.732;2023-03-26T09:13:19;99149.03;;;17.39;45.38
8051;BME280;4068;42.158;24.732;2023-03-26T09:30:45;99147.50;;;17.91;43.19
8051;BME280;4068;42.158;24.732;2023-03-26T09:40:52;99149.56;;;18.04;41.83
8051;BME280;4068;42.158;24.732;2023-03-26T09:51:42;99136.38;;;18.32;39.90
8051;BME280;4068;42.158;24.732;2023-03-26T09:55:11;99141.28;;;18.43;40.52
8051;BME280;4068;42.158;24.732;2023-03-26T10:02:27;99106.47;;;18.80;39.98
8051;BME280;4068;42.158;24.732;2023-03-26T10:29:57;99094.03;;;19.30;36.16
8051;BME280;4068;42.158;24.732;2023-03-26T10:35:47;99099.50;;;19.37;33.91
8051;BME280;4068;42.158;24.732;2023-03-26T10:38:34;99082.97;;;19.40;34.55
8051;BME280;4068;42.158;24.732;2023-03-26T10:46:58;99053.13;;;19.57;34.08
8051;BME280;4068;42.158;24.732;2023-03-26T10:52:29;99072.88;;;19.71;32.97
8051;BME280;4068;42.158;24.732;2023-03-26T10:55:06;99072.41;;;19.60;33.06
8051;BME280;4068;42.158;24.732;2023-03-26T10:57:46;99069.44;;;19.55;33.59
8051;BME280;4068;42.158;24.732;2023-03-26T11:00:18;99057.28;;;19.59;33.49
8051;BME280;4068;42.158;24.732;2023-03-26T11:08:30;99059.41;;;19.92;32.79
8051;BME280;4068;42.158;24.732;2023-03-26T11:11:00;99051.94;;;19.88;32.78
8051;BME280;4068;42.158;24.732;2023-03-26T11:14:02;99052.59;;;19.90;31.23
8051;BME280;4068;42.158;24.732;2023-03-26T11:19:39;99040.81;;;19.69;31.30
8051;BME280;4068;42.158;24.732;2023-03-26T11:33:06;99009.59;;;20.38;31.64
8051;BME280;4068;42.158;24.732;2023-03-26T11:35:36;99021.25;;;20.52;31.90
8051;BME280;4068;42.158;24.732;2023-03-26T11:38:15;99012.34;;;20.51;31.15
8051;BME280;4068;42.158;24.732;2023-03-26T11:40:43;99015.28;;;20.57;31.05
8051;BME280;4068;42.158;24.732;2023-03-26T11:43:14;99016.72;;;20.52;30.90
8051;BME280;4068;42.158;24.732;2023-03-26T11:45:44;99020.88;;;20.62;30.90
8051;BME280;4068;42.158;24.732;2023-03-26T11:50:48;99013.88;;;20.67;29.28
8051;BME280;4068;42.158;24.732;2023-03-26T11:53:18;99003.44;;;20.58;30.06
8051;BME280;4068;42.158;24.732;2023-03-26T11:55:58;99002.06;;;20.68;29.81
8051;BME280;4068;42.158;24.732;2023-03-26T11:58:30;99000.84;;;20.71;29.77
8051;BME280;4068;42.158;24.732;2023-03-26T12:01:00;98988.19;;;20.72;30.01
8051;BME280;4068;42.158;24.732;2023-03-26T12:03:28;99004.22;;;20.86;30.02
8051;BME280;4068;42.158;24.732;2023-03-26T12:05:57;98996.34;;;20.85;30.09
8051;BME280;4068;42.158;24.732;2023-03-26T12:08:33;98990.53;;;20.95;29.76
8051;BME280;4068;42.158;24.732;2023-03-26T12:11:04;98988.84;;;20.80;30.35
8051;BME280;4068;42.158;24.732;2023-03-26T12:13:37;98993.00;;;20.83;30.32
8051;BME280;4068;42.158;24.732;2023-03-26T12:16:08;98994.22;;;20.80;30.17
8051;BME280;4068;42.158;24.732;2023-03-26T12:18:36;98983.47;;;20.87;29.46
8051;BME280;4068;42.158;24.732;2023-03-26T12:21:15;98979.97;;;21.00;29.52
8051;BME280;4068;42.158;24.732;2023-03-26T12:23:59;98949.28;;;20.81;29.52
8051;BME280;4068;42.158;24.732;2023-03-26T12:26:42;98958.63;;;20.98;29.50
8051;BME280;4068;42.158;24.732;2023-03-26T12:29:15;98975.00;;;21.30;29.10
8051;BME280;4068;42.158;24.732;2023-03-26T12:34:20;98973.16;;;21.44;27.54
8051;BME280;4068;42.158;24.732;2023-03-26T12:36:49;98968.59;;;21.38;28.34
8051;BME280;4068;42.158;24.732;2023-03-26T12:39:41;98953.44;;;21.37;28.17
8051;BME280;4068;42.158;24.732;2023-03-26T12:42:33;98957.81;;;21.38;26.91
8051;BME280;4068;42.158;24.732;2023-03-26T12:44:59;98934.16;;;21.13;27.32
8051;BME280;4068;42.158;24.732;2023-03-26T12:47:27;98927.50;;;21.16;27.82
8051;BME280;4068;42.158;24.732;2023-03-26T12:49:54;98950.13;;;21.28;27.75
8051;BME280;4068;42.158;24.732;2023-03-26T12:52:32;98937.88;;;21.26;27.30
8051;BME280;4068;42.158;24.732;2023-03-26T12:55:18;98931.88;;;21.30;27.16
8051;BME280;4068;42.158;24.732;2023-03-26T12:57:53;98930.44;;;21.28;26.69
8051;BME280;4068;42.158;24.732;2023-03-26T13:00:39;98933.31;;;21.26;26.56
8051;BME280;4068;42.158;24.732;2023-03-26T13:06:16;98928.13;;;21.25;25.92
8051;BME280;4068;42.158;24.732;2023-03-26T13:08:55;98930.00;;;21.37;25.79
8051;BME280;4068;42.158;24.732;2023-03-26T13:18:52;98907.19;;;21.47;25.17
8051;BME280;4068;42.158;24.732;2023-03-26T13:23:35;98914.22;;;21.34;24.54
8051;BME280;4068;42.158;24.732;2023-03-26T13:31:57;98884.81;;;21.19;25.28
8051;BME280;4068;42.158;24.732;2023-03-26T13:34:59;98894.97;;;21.24;26.05
8051;BME280;4068;42.158;24.732;2023-03-26T13:43:35;98881.47;;;21.24;25.22
8051;BME280;4068;42.158;24.732;2023-03-26T13:46:54;98878.56;;;21.32;25.68
8051;BME280;4068;42.158;24.732;2023-03-26T13:49:14;98891.84;;;21.20;25.74
8051;BME280;4068;42.158;24.732;2023-03-26T13:57:04;98884.34;;;21.36;26.01
8051;BME280;4068;42.158;24.732;2023-03-26T13:59:39;98878.34;;;21.27;25.70
8051;BME280;4068;42.158;24.732;2023-03-26T14:02:12;98854.53;;;21.17;25.95
8051;BME280;4068;42.158;24.732;2023-03-26T14:04:50;98885.00;;;21.31;26.68
8051;BME280;4068;42.158;24.732;2023-03-26T14:07:42;98883.34;;;21.30;26.80
8051;BME280;4068;42.158;24.732;2023-03-26T14:10:39;98884.78;;;21.26;26.36
8051;BME280;4068;42.158;24.732;2023-03-26T14:13:32;98891.63;;;21.29;26.60
8051;BME280;4068;42.158;24.732;2023-03-26T14:16:11;98881.47;;;21.24;26.66
8051;BME280;4068;42.158;24.732;2023-03-26T14:18:47;98858.91;;;21.05;27.01
8051;BME280;4068;42.158;24.732;2023-03-26T14:21:35;98879.41;;;21.19;27.19
8051;BME280;4068;42.158;24.732;2023-03-26T14:36:05;98886.88;;;21.24;26.86
8051;BME280;4068;42.158;24.732;2023-03-26T14:41:49;98876.72;;;21.19;26.34
8051;BME280;4068;42.158;24.732;2023-03-26T14:47:20;98877.56;;;21.07;26.57
8051;BME280;4068;42.158;24.732;2023-03-26T15:34:03;98842.28;;;20.48;26.42
8051;BME280;4068;42.158;24.732;2023-03-26T15:59:01;98842.38;;;20.06;27.49
8051;BME280;4068;42.158;24.732;2023-03-26T16:10:27;98843.75;;;19.54;29.88
8051;BME280;4068;42.158;24.732;2023-03-26T16:15:39;98843.44;;;19.28;30.82
8051;BME280;4068;42.158;24.732;2023-03-26T16:26:34;98861.78;;;18.75;32.34
8051;BME280;4068;42.158;24.732;2023-03-26T16:32:13;98865.88;;;18.27;33.26
8051;BME280;4068;42.158;24.732;2023-03-26T16:37:46;98880.44;;;17.88;33.99
8051;BME280;4068;42.158;24.732;2023-03-26T16:48:05;98889.69;;;17.26;35.12
8051;BME280;4068;42.158;24.732;2023-03-26T16:50:53;98894.94;;;17.19;35.10
8051;BME280;4068;42.158;24.732;2023-03-26T16:53:33;98873.78;;;17.10;35.26
8051;BME280;4068;42.158;24.732;2023-03-26T16:58:53;98893.91;;;17.05;35.09
8051;BME280;4068;42.158;24.732;2023-03-26T17:04:17;98882.06;;;16.53;36.00
8051;BME280;4068;42.158;24.732;2023-03-26T17:07:25;98907.16;;;16.52;36.82
8051;BME280;4068;42.158;24.732;2023-03-26T17:17:56;98914.22;;;16.22;37.62
8051;BME280;4068;42.158;24.732;2023-03-26T17:25:36;98949.88;;;16.06;37.88
8051;BME280;4068;42.158;24.732;2023-03-26T17:28:31;98953.25;;;16.00;38.48
8051;BME280;4068;42.158;24.732;2023-03-26T17:33:48;98956.47;;;15.79;38.96
8051;BME280;4068;42.158;24.732;2023-03-26T17:36:38;98954.47;;;15.73;38.50
8051;BME280;4068;42.158;24.732;2023-03-26T17:39:18;98927.13;;;15.54;38.90
8051;BME280;4068;42.158;24.732;2023-03-26T17:41:55;98949.16;;;15.56;39.48
8051;BME280;4068;42.158;24.732;2023-03-26T17:44:35;98963.19;;;15.58;39.53
8051;BME280;4068;42.158;24.732;2023-03-26T17:47:04;98919.00;;;15.23;39.58
8051;BME280;4068;42.158;24.732;2023-03-26T17:49:31;98949.22;;;15.15;39.85
8051;BME280;4068;42.158;24.732;2023-03-26T17:52:19;98969.91;;;15.05;40.25
8051;BME280;4068;42.158;24.732;2023-03-26T17:54:51;98972.25;;;14.91;40.42
8051;BME280;4068;42.158;24.732;2023-03-26T17:57:26;98972.56;;;14.80;40.63
8051;BME280;4068;42.158;24.732;2023-03-26T17:59:58;98973.38;;;14.72;41.40
8051;BME280;4068;42.158;24.732;2023-03-26T18:02:37;98974.72;;;14.68;42.33
8051;BME280;4068;42.158;24.732;2023-03-26T18:05:12;98975.16;;;14.55;42.10
8051;BME280;4068;42.158;24.732;2023-03-26T18:13:11;98983.91;;;14.31;43.99
8051;BME280;4068;42.158;24.732;2023-03-26T18:16:25;98987.78;;;14.37;44.22
8051;BME280;4068;42.158;24.732;2023-03-26T18:18:50;98983.03;;;14.22;43.30
8051;BME280;4068;42.158;24.732;2023-03-26T18:21:22;98972.47;;;14.04;43.55
8051;BME280;4068;42.158;24.732;2023-03-26T18:23:50;98982.00;;;14.15;44.19
8051;BME280;4068;42.158;24.732;2023-03-26T18:28:53;98980.09;;;13.99;44.11
8051;BME280;4068;42.158;24.732;2023-03-26T18:31:22;98954.16;;;13.75;44.54
8051;BME280;4068;42.158;24.732;2023-03-26T18:33:53;98968.00;;;13.78;44.68
8051;BME280;4068;42.158;24.732;2023-03-26T18:36:23;98990.59;;;13.92;44.71
8051;BME280;4068;42.158;24.732;2023-03-26T18:38:50;98962.69;;;13.78;44.50
8051;BME280;4068;42.158;24.732;2023-03-26T18:41:30;98982.88;;;13.89;44.95
8051;BME280;4068;42.158;24.732;2023-03-26T18:44:05;98981.56;;;13.93;45.20
8051;BME280;4068;42.158;24.732;2023-03-26T18:46:32;98976.56;;;13.90;46.14
8051;BME280;4068;42.158;24.732;2023-03-26T18:49:01;98946.28;;;13.65;47.02
8051;BME280;4068;42.158;24.732;2023-03-26T18:51:27;98959.31;;;13.68;47.16
8051;BME280;4068;42.158;24.732;2023-03-26T18:54:02;98988.69;;;13.85;47.14
8051;BME280;4068;42.158;24.732;2023-03-26T18:56:36;98973.66;;;13.75;47.03
8051;BME280;4068;42.158;24.732;2023-03-26T18:59:05;98977.09;;;13.68;47.57
8051;BME280;4068;42.158;24.732;2023-03-26T19:01:34;98989.44;;;13.69;48.04
8051;BME280;4068;42.158;24.732;2023-03-26T19:04:03;98993.41;;;13.64;47.82
8051;BME280;4068;42.158;24.732;2023-03-26T19:06:31;98961.28;;;13.40;47.34